Aeroporto :
LOGIN :

Iscrizione | Disclaimer

   EN    FR    IT 

 










Sommario :    VFR   VFR Marginale   IFR   IFR Intensivo   IFR Molto Intensivo
Visibilità : 
Base nubi : 
>= 8 km
>= 3000ft
5 / 8 km
1000 / 3000 ft
1500m / 5 km
500 / 1000 ft
800 / 1500m
200 / 500 ft
< 800m
< 200 ft
Simboli :   Temporali  Nebbia  Neve Forte  Precipitazioni Forti  Vento > 20 kt
SIGMETs :   Varie  Temporali  Ghiacco  Turbolenza  Onda orograficha  Ceneri Vulcaniche







- Altitudine del aeroporto : 171 ft
- Codice IATA : EGC
- Carte del aeroporto


LFBE - Bergerac

ULTIMO METAR :
  • 210400Z AUTO 16002KT 9999 BKN015 OVC021 16/16 Q1016 BECMG BKN013

METARs OBSOLETI :
  • 210330Z AUTO 00000KT 8000 SCT018 BKN250 15/14 Q1016 BECMG BKN013
  • 210300Z AUTO 20002KT CAVOK 16/15 Q1016 BECMG BKN013
  • 210230Z AUTO 23003KT CAVOK 16/16 Q1016 BECMG BKN008
  • 210200Z AUTO 19003KT CAVOK 17/16 Q1016 BECMG BKN008
  • 210130Z AUTO 30005KT CAVOK 17/16 Q1016 BECMG BKN008

TAF AMD TAF LFBE
Valido dal 21 a 02 ore il 22 a 00 ore UTC


210232Z 2102/2124 27005KT CAVOK
BECMG 2103/2105 BKN013
BECMG 2108/2110 25010KT BKN030
TEMPO 2112/2115 31010KT
TEMPO 2112/2118 4000 -RA BKN015
BECMG 2115/2117 VRB02KT
BECMG 2118/2120 CAVOK
Nessun NOTAM noto per questo aeroporto.



MetMap, La meteo Aeronautica in un colpo d'occhio ! - Copyright ORBIFLY Dicembre 2007 - Disclaimer

ORBIFLY MET'MAP TEAM :

Programmazione e sviluppo : Alexandra Zaïnal
Concezione e sviluppo : Baudouin d'Aumeries
Co-Programmazione e sviluppo : Marc-Olivier Méhu
Supporto tecnico e logistico : Manuel Goepfert
Aiuto per la traduzione : Arnaldo La Scala

Contatto : metmap@orbifly.com




FONTI E CREDITI :

   NOAA